首页
METAR-TAF:

METAR-TAF

机场 :

Lawson Army Airfield

哥伦布, 喬治亞, 美国

纬度: 32-20N, 经度: 084-50W, 海拔: 71米

当前天气观测

该预报发布于30分钟前的23:56 UTC
风速8节,风向北转西北
温度 14°C
湿度 36%
气压 1023 hPa
能見度: 16.1公里
天空无云

METAR: KLSF 182356Z AUTO 33008KT 10SM CLR 14/M01 A3021 RMK AO2 SLP236 T01371015 10195 20137 53008

时间: 20:26 (00:26 UTC)

预报

该预报发布于3小时和32分钟前的20:54 UTC
预报有效从18日的 20点(UTC)到 19日的 23点(UTC)
风速10节,风向,有时为15节阵风
能见度10公里或以上
天空无云
成为
从 18日的 23点(UTC)到 18日的 24点(UTC)
风速6节,风向
能见度10公里或以上
天空无云
成为
从 19日的 14点(UTC)到 19日的 15点(UTC)
风速10节,风向东转东北,有时为15节阵风
能见度10公里或以上
少量云层高于25000英尺

TAF: KLSF 182054Z 1820/1923 35010G15KT 9999 SKC QNH3020INS BECMG 1823/1824 35006KT 9999 SKC 510102 QNH3028INS BECMG 1914/1915 06010G15KT 9999 FEW250 QNH3026INS TX20/1821Z TN01/1912Z

超过4000个机场的气象观测和天气预报(METAR&TAF报告)。

可查询的气象台以黄色和红色小点在地图上表示。

将鼠标移到小点上方,可查看气象台名称。

然后点击查看天气观测和预报。

如需切换地图:点击带黑十字的绿色按钮放大地图;点击带横线的绿色按钮缩小地图;或者点击绿色箭头查看邻近地区的地图。


METAR-TAF: